Ar Rutbah, Iraq
Current Conditions -  °F | °C
As of 1:55 PM on Thursday 23 Oct 2014 (Local Time) from KQAJ Reporting Station
Clear Clear  
Wind Chill: 86°   Ceiling: Unl
Heat Index: 86°   Visibility: 6mi
Dew Point: 42°   Wind: 9mph
Humidity: 21%   Direction: 10°N
Pressure: 30.06"   Gusts: 15mph
Location:  33.04°N, 40.3°E
Report Text: KQAJ 231055Z 01008G13KT 9999 340V040 CLR 30/06 A3006 RMK AO2A SLP173 T03010057
Loading
Personal Weather Stations






























Interactive Weather Map
Tropical Storm Tracking
New forecast layout! Learn more

10-Day Weather Forecast

Advertisements
Track Severe Weather on mobile